METAR AND TAF INFORMATION
METAR FOR EHVK
ADDS - METARS form results

(1106 UTC 25 May 2019)
Data provider http://aviationweather.gov/metar/data/
 
METAR text: EHVK 251055Z AUTO 27003KT 290V070 9999 SCT092 OVC100 15/09 Q1018 BLU
Conditions at: EHVK (VOLKEL RNLAFB , NL) observed 1055 UTC 25 May 2019
Temperature: 15.0°C (59°F)
Dewpoint: 9.0°C (48°F) [RH = 67%]
Pressure (altimeter): 30.06 inches Hg (1018.0 mb)
Winds: from the W (270 degrees) at 3 MPH (3 knots; 1.5 m/s)
Visibility: 6 or more miles (10+ km)
Ceiling: 10000 feet AGL
Clouds: scattered clouds at 9200 feet AGL
overcast cloud deck at 10000 feet AGL
Weather: no significant weather observed at this time

METAR text: EHVK 251047Z AUTO 28003KT 280V020 9999 FEW022 SCT084 BKN091 15/09 Q1018 BLU
Conditions at: EHVK (VOLKEL RNLAFB , NL) observed 1047 UTC 25 May 2019
Temperature: 15.0°C (59°F)
Dewpoint: 9.0°C (48°F) [RH = 67%]
Pressure (altimeter): 30.06 inches Hg (1018.0 mb)
Winds: from the W (280 degrees) at 3 MPH (3 knots; 1.5 m/s)
Visibility: 6 or more miles (10+ km)
Ceiling: 9100 feet AGL
Clouds: few clouds at 2200 feet AGL
scattered clouds at 8400 feet AGL
broken clouds at 9100 feet AGL
Weather: no significant weather observed at this time

METAR text: EHVK 251041Z AUTO 31004KT 280V040 9999 SCT023 BKN084 OVC092 15/09 Q1018 WHT
Conditions at: EHVK (VOLKEL RNLAFB , NL) observed 1041 UTC 25 May 2019
Temperature: 15.0°C (59°F)
Dewpoint: 9.0°C (48°F) [RH = 67%]
Pressure (altimeter): 30.06 inches Hg (1018.0 mb)
Winds: from the NW (310 degrees) at 5 MPH (4 knots; 2.1 m/s)
Visibility: 6 or more miles (10+ km)
Ceiling: 8400 feet AGL
Clouds: scattered clouds at 2300 feet AGL
broken clouds at 8400 feet AGL
overcast cloud deck at 9200 feet AGL
Weather: no significant weather observed at this time

METAR text: EHVK 251025Z AUTO 34006KT 270V010 9999 SCT076 BKN086 OVC094 15/09 Q1018 BLU
Conditions at: EHVK (VOLKEL RNLAFB , NL) observed 1025 UTC 25 May 2019
Temperature: 15.0°C (59°F)
Dewpoint: 9.0°C (48°F) [RH = 67%]
Pressure (altimeter): 30.06 inches Hg (1018.0 mb)
Winds: from the NNW (340 degrees) at 7 MPH (6 knots; 3.1 m/s)
Visibility: 6 or more miles (10+ km)
Ceiling: 8600 feet AGL
Clouds: scattered clouds at 7600 feet AGL
broken clouds at 8600 feet AGL
overcast cloud deck at 9400 feet AGL
Weather: no significant weather observed at this time

Forecast for: EHVK (VOLKEL RNLAFB , NL)
Text: TAF EHVK 250913Z 2509/2521 VRB03KT 9999 SCT025 BKN080
Forecast period: 0900 to 1100 UTC 25 May 2019
Forecast type: FROM: standard forecast or significant change
Winds: variable direction winds at 3 MPH (3 knots; 1.5 m/s)
Visibility: 6 or more miles 10+ km)
Ceiling: 8000 feet AGL
Clouds: scattered clouds at 2500 feet AGL
broken clouds at 8000 feet AGL
Weather: no significant weather forecast for this period
Text: BECMG 2511/2514 34005KT
Forecast period: 1100 to 2100 UTC 25 May 2019
Forecast type: BECOMING: Conditions expected to become as follows by 1400 UTC 25 May 2019
Winds: from the NNW (340 degrees) at 6 MPH (5 knots; 2.6 m/s)
Visibility: 6 or more miles 10+ km)
Ceiling: 8000 feet AGL
Clouds: scattered clouds at 2500 feet AGL
broken clouds at 8000 feet AGL
Weather: no significant weather forecast for this period

 AIRPORT MAP

 RUNWAY INFORMATION
Runway 06L Runway length 9922 ft Runway width 148 ft
Runway elevation 71 ft Runway displaced threshold 444 ft Runway heading 58
Runway 24R Runway length 9922 ft Runway width 148 ft
Runway elevation 64 ft Runway displaced threshold 444 ft Runway heading 238
Runway 06R Runway length 9931 ft Runway width 74 ft
Runway elevation 72 ft Runway displaced threshold 446 ft Runway heading 58
Runway 24L Runway length 9931 ft Runway width 74 ft
Runway elevation 65 ft Runway displaced threshold 446 ft Runway heading 238

 AIRPORT FREQUENCIES
Type APP Name RAPCON SOU Frequency 123.175 MHZ
Type GND Name GND Frequency 38.677 MHZ
Type TWR Name TWR Frequency 133.425 MHZ

 AIRPORT NEAR NAVIGATION AIDS
Type TACAN Name Volkel Frequency 108300 KHZ